createdAt,value
2018-05-06T00:01:33.109Z,72.39
2018-05-06T00:04:37.197Z,72.79
2018-05-06T00:07:40.498Z,73.03
2018-05-06T00:10:43.814Z,73.23
2018-05-06T00:13:47.882Z,73.52
2018-05-06T00:16:51.193Z,73.72
2018-05-06T00:19:54.480Z,74.05
2018-05-06T00:22:57.789Z,74.36
2018-05-06T00:26:01.104Z,74.43
2018-05-06T00:29:04.397Z,74.63
2018-05-06T00:32:07.712Z,74.90
2018-05-06T00:35:11.775Z,75.05
2018-05-06T00:38:15.085Z,74.95
2018-05-06T00:41:18.385Z,75.01
2018-05-06T00:44:21.700Z,75.22
2018-05-06T00:47:24.993Z,75.49
2018-05-06T00:50:28.301Z,75.74
2018-05-06T00:53:31.599Z,75.89
2018-05-06T00:56:35.672Z,75.89
2018-05-06T00:59:39.009Z,75.85
2018-05-06T01:02:43.077Z,75.84
2018-05-06T01:05:46.389Z,75.86
2018-05-06T01:08:49.705Z,75.85
2018-05-06T01:11:53.001Z,75.82
2018-05-06T01:14:56.304Z,75.93
2018-05-06T01:18:00.372Z,76.00
2018-05-06T01:21:03.678Z,76.05
2018-05-06T01:24:07.012Z,76.11
2018-05-06T01:27:11.081Z,76.18
2018-05-06T01:30:14.411Z,76.34
2018-05-06T01:33:17.705Z,76.71
2018-05-06T01:36:21.029Z,77.16
2018-05-06T01:39:24.332Z,77.55
2018-05-06T01:42:27.657Z,77.88
2018-05-06T01:45:30.958Z,78.22
2018-05-06T01:48:34.276Z,78.19
2018-05-06T01:51:37.577Z,78.20
2018-05-06T01:54:40.993Z,78.36
2018-05-06T01:57:45.058Z,78.34
2018-05-06T02:00:48.412Z,78.24
2018-05-06T02:03:51.705Z,78.20
2018-05-06T02:06:55.793Z,78.08
2018-05-06T02:09:59.087Z,77.95
2018-05-06T02:13:02.424Z,77.74
2018-05-06T02:16:06.501Z,77.58
2018-05-06T02:19:09.818Z,77.39
2018-05-06T02:22:13.890Z,77.22
2018-05-06T02:25:17.310Z,77.24
2018-05-06T02:28:20.616Z,77.37
2018-05-06T02:31:23.944Z,77.58
2018-05-06T02:34:27.241Z,77.58
2018-05-06T02:37:30.557Z,77.45
2018-05-06T02:40:33.853Z,77.24
2018-05-06T02:43:37.158Z,77.35
2018-05-06T02:46:40.481Z,77.34
2018-05-06T02:49:43.781Z,77.17
2018-05-06T02:52:47.110Z,77.29
2018-05-06T02:55:51.176Z,77.33
2018-05-06T02:58:54.496Z,77.44
2018-05-06T03:01:57.798Z,77.53
2018-05-06T03:05:01.106Z,77.59
2018-05-06T03:08:05.196Z,77.53
2018-05-06T03:11:08.493Z,77.66
2018-05-06T03:14:11.805Z,77.75
2018-05-06T03:17:15.119Z,77.91
2018-05-06T03:20:19.202Z,78.10
2018-05-06T03:23:22.505Z,78.07
2018-05-06T03:26:25.833Z,78.17
2018-05-06T03:29:29.126Z,78.20
2018-05-06T03:32:33.205Z,78.26
2018-05-06T03:35:36.501Z,78.49
2018-05-06T03:38:39.812Z,78.31
2018-05-06T03:41:43.876Z,78.28
2018-05-06T03:44:47.213Z,78.21
2018-05-06T03:47:50.508Z,78.24
2018-05-06T03:50:53.833Z,78.37
2018-05-06T03:53:57.893Z,78.50
2018-05-06T03:57:18.866Z,78.61
2018-05-06T04:00:40.046Z,78.76
2018-05-06T04:03:43.347Z,78.92
2018-05-06T04:06:46.645Z,79.00
2018-05-06T04:09:49.958Z,79.06
2018-05-06T04:12:54.034Z,79.11
2018-05-06T04:15:57.343Z,79.19
2018-05-06T04:19:00.671Z,79.35
2018-05-06T04:22:04.726Z,79.36
2018-05-06T04:25:08.040Z,79.34
2018-05-06T04:28:12.858Z,79.22
2018-05-06T04:31:16.184Z,79.42
2018-05-06T04:34:19.481Z,79.67
2018-05-06T04:37:22.797Z,79.76
2018-05-06T04:40:26.853Z,79.71
2018-05-06T04:43:30.164Z,79.51
2018-05-06T04:46:33.469Z,79.39
2018-05-06T04:49:36.776Z,79.54
2018-05-06T04:52:40.087Z,79.43
2018-05-06T04:55:44.160Z,79.45
2018-05-06T04:58:47.481Z,79.18
2018-05-06T05:01:50.781Z,79.10
2018-05-06T05:04:54.081Z,78.68
2018-05-06T05:07:57.396Z,78.28
2018-05-06T05:11:01.452Z,78.09
2018-05-06T05:14:04.790Z,77.80
2018-05-06T05:17:08.114Z,77.47
2018-05-06T05:20:11.482Z,77.03
2018-05-06T05:23:14.748Z,76.90
2018-05-06T05:26:18.058Z,76.44
2018-05-06T05:29:21.357Z,76.33
2018-05-06T05:32:24.674Z,76.47
2018-05-06T05:35:27.981Z,76.18
2018-05-06T05:38:32.084Z,76.39
2018-05-06T05:41:35.385Z,75.81
2018-05-06T05:44:39.464Z,75.94
2018-05-06T05:47:42.809Z,75.03
2018-05-06T05:50:46.880Z,74.52
2018-05-06T05:53:50.198Z,74.40
2018-05-06T05:56:53.506Z,74.16
2018-05-06T05:59:57.598Z,73.89
2018-05-06T06:03:00.901Z,73.26
2018-05-06T06:06:04.224Z,72.53
2018-05-06T06:09:08.302Z,71.32
2018-05-06T06:12:11.616Z,71.28
2018-05-06T06:15:14.920Z,70.92
2018-05-06T06:18:19.010Z,70.93
2018-05-06T06:21:22.322Z,70.78
2018-05-06T06:24:25.704Z,70.75
2018-05-06T06:27:28.967Z,70.23
2018-05-06T06:30:33.040Z,69.74
2018-05-06T06:33:37.137Z,68.72
2018-05-06T06:36:40.446Z,66.47
2018-05-06T06:39:43.778Z,64.69
2018-05-06T06:42:47.089Z,63.34
2018-05-06T06:45:50.416Z,63.23
2018-05-06T06:48:53.723Z,62.91
2018-05-06T06:51:57.056Z,61.96
2018-05-06T06:55:00.376Z,62.59
2018-05-06T06:58:03.697Z,62.78
2018-05-06T07:01:07.005Z,61.67
2018-05-06T07:04:10.329Z,61.16
2018-05-06T07:07:14.401Z,60.90
2018-05-06T07:10:17.713Z,59.71
2018-05-06T07:13:21.018Z,59.49
2018-05-06T07:16:24.368Z,58.93
2018-05-06T07:19:27.666Z,59.20
2018-05-06T07:22:30.983Z,58.49
2018-05-06T07:25:34.276Z,58.53
2018-05-06T07:28:37.593Z,57.90
2018-05-06T07:31:40.928Z,56.77
2018-05-06T07:34:44.233Z,57.29
2018-05-06T07:37:47.570Z,56.70
2018-05-06T07:40:50.873Z,56.35
2018-05-06T07:43:54.197Z,56.30
2018-05-06T07:46:58.277Z,55.41
2018-05-06T07:50:01.589Z,54.21
2018-05-06T07:53:04.897Z,52.47
2018-05-06T07:56:08.984Z,50.73
2018-05-06T07:59:12.295Z,50.51
2018-05-06T08:02:15.610Z,51.14
2018-05-06T08:05:19.680Z,49.64
2018-05-06T08:08:23.001Z,49.03
2018-05-06T08:11:26.308Z,48.62
2018-05-06T08:14:29.645Z,47.50
2018-05-06T08:17:32.967Z,47.25
2018-05-06T08:20:36.276Z,47.21
2018-05-06T08:23:39.592Z,46.58
2018-05-06T08:26:43.680Z,47.05
2018-05-06T08:29:46.997Z,47.66
2018-05-06T08:32:50.320Z,47.96
2018-05-06T08:35:54.391Z,47.52
2018-05-06T08:38:57.714Z,47.80
2018-05-06T08:42:01.017Z,46.49
2018-05-06T08:45:05.096Z,46.29
2018-05-06T08:48:08.396Z,46.57
2018-05-06T08:51:11.713Z,46.37
2018-05-06T08:54:15.009Z,45.83
2018-05-06T08:57:18.321Z,45.55
2018-05-06T09:00:22.438Z,44.42
2018-05-06T09:03:26.505Z,44.66
2018-05-06T09:06:29.820Z,44.02
2018-05-06T09:09:33.120Z,44.13
2018-05-06T09:12:36.441Z,46.50
2018-05-06T09:15:40.512Z,43.17
2018-05-06T09:18:43.849Z,44.34
2018-05-06T09:21:47.921Z,43.83
2018-05-06T09:24:51.249Z,44.49
2018-05-06T09:27:54.563Z,44.04
2018-05-06T09:30:58.645Z,45.40
2018-05-06T09:34:01.958Z,43.98
2018-05-06T09:37:06.045Z,43.14
2018-05-06T09:40:09.367Z,42.87
2018-05-06T09:43:12.681Z,43.04
2018-05-06T09:46:16.777Z,41.85
2018-05-06T09:49:20.085Z,39.52
2018-05-06T09:52:23.401Z,42.03
2018-05-06T09:55:26.726Z,39.15
2018-05-06T09:58:30.045Z,39.86
2018-05-06T10:01:33.354Z,40.67
2018-05-06T10:04:36.713Z,40.08
2018-05-06T10:07:40.023Z,39.60
2018-05-06T10:10:43.348Z,39.08
2018-05-06T10:13:46.654Z,40.22
2018-05-06T10:16:50.752Z,43.04
2018-05-06T10:19:54.075Z,43.16
2018-05-06T10:22:58.160Z,44.70
2018-05-06T10:26:01.463Z,44.40
2018-05-06T10:29:04.784Z,43.33
2018-05-06T10:32:08.873Z,43.41
2018-05-06T10:35:12.180Z,43.39
2018-05-06T10:38:15.502Z,43.07
2018-05-06T10:41:18.817Z,42.99
2018-05-06T10:44:22.194Z,40.93
2018-05-06T10:47:25.453Z,41.96
2018-05-06T10:50:29.575Z,41.55
2018-05-06T10:53:32.876Z,40.45
2018-05-06T10:56:36.201Z,43.02
2018-05-06T10:59:39.504Z,40.98
2018-05-06T11:02:42.837Z,43.26
2018-05-06T11:05:46.142Z,43.38
2018-05-06T11:08:49.469Z,41.59
2018-05-06T11:11:53.546Z,41.78
2018-05-06T11:14:56.857Z,40.69
2018-05-06T11:18:00.195Z,41.28
2018-05-06T11:21:03.501Z,41.88
2018-05-06T11:24:06.813Z,41.21
2018-05-06T11:27:10.117Z,41.29
2018-05-06T11:30:13.429Z,41.42
2018-05-06T11:33:16.754Z,42.94
2018-05-06T11:36:20.846Z,41.09
2018-05-06T11:39:24.149Z,42.07
2018-05-06T11:42:27.478Z,42.54
2018-05-06T11:45:30.777Z,41.60
2018-05-06T11:48:34.091Z,41.96
2018-05-06T11:51:37.405Z,42.36
2018-05-06T11:54:40.716Z,41.47
2018-05-06T11:57:44.056Z,39.68
2018-05-06T12:00:48.133Z,39.92
2018-05-06T12:03:51.482Z,40.96
2018-05-06T12:06:54.780Z,41.17
2018-05-06T12:09:58.128Z,40.13
2018-05-06T12:13:01.439Z,40.94
2018-05-06T12:16:04.830Z,40.37
2018-05-06T12:19:08.842Z,41.20
2018-05-06T12:22:12.149Z,39.84
2018-05-06T12:25:16.245Z,40.19
2018-05-06T12:28:19.556Z,41.51
2018-05-06T12:31:22.884Z,41.32
2018-05-06T12:34:26.192Z,41.60
2018-05-06T12:37:29.520Z,40.87
2018-05-06T12:40:32.834Z,41.83
2018-05-06T12:43:36.168Z,41.56
2018-05-06T12:46:39.474Z,40.07
2018-05-06T12:49:42.804Z,41.00
2018-05-06T12:52:46.104Z,42.74
2018-05-06T12:55:49.444Z,41.53
2018-05-06T12:58:52.749Z,42.33
2018-05-06T13:01:56.071Z,41.94
2018-05-06T13:04:59.401Z,42.78
2018-05-06T13:08:02.715Z,43.30
2018-05-06T13:11:06.821Z,41.75
2018-05-06T13:14:10.145Z,41.77
2018-05-06T13:17:13.571Z,42.02
2018-05-06T13:20:16.875Z,42.67
2018-05-06T13:23:20.182Z,42.31
2018-05-06T13:26:23.499Z,43.23
2018-05-06T13:29:26.809Z,42.22
2018-05-06T13:32:30.126Z,43.41
2018-05-06T13:35:33.449Z,44.04
2018-05-06T13:38:36.753Z,44.30
2018-05-06T13:41:40.072Z,42.01
2018-05-06T13:44:43.377Z,43.76
2018-05-06T13:47:46.705Z,44.56
2018-05-06T13:50:50.778Z,44.19
2018-05-06T13:53:54.109Z,43.44
2018-05-06T13:56:58.173Z,44.48
2018-05-06T14:00:01.501Z,44.86
2018-05-06T14:03:04.812Z,43.77
2018-05-06T14:06:08.908Z,44.15
2018-05-06T14:09:12.211Z,42.71
2018-05-06T14:12:15.541Z,43.82
2018-05-06T14:15:18.849Z,42.66
2018-05-06T14:18:22.178Z,42.22
2018-05-06T14:21:25.494Z,42.39
2018-05-06T14:24:28.825Z,42.28
2018-05-06T14:27:32.136Z,43.40
2018-05-06T14:30:35.489Z,41.98
2018-05-06T14:33:38.794Z,43.06
2018-05-06T14:36:42.880Z,40.48
2018-05-06T14:39:46.189Z,42.04
2018-05-06T14:42:49.508Z,42.97
2018-05-06T14:45:53.585Z,42.13
2018-05-06T14:48:56.913Z,40.57
2018-05-06T14:52:00.217Z,41.00
2018-05-06T14:55:04.307Z,40.55
2018-05-06T14:58:07.622Z,41.90
2018-05-06T15:01:11.709Z,41.69
2018-05-06T15:04:15.014Z,39.34
2018-05-06T15:07:18.354Z,39.77
2018-05-06T15:10:21.729Z,39.14
2018-05-06T15:13:25.005Z,38.58
2018-05-06T15:16:28.323Z,40.14
2018-05-06T15:19:32.425Z,39.24
2018-05-06T15:22:35.724Z,38.46
2018-05-06T15:25:39.034Z,36.86
2018-05-06T15:28:43.105Z,36.54
2018-05-06T15:31:46.450Z,36.47
2018-05-06T15:34:50.512Z,37.48
2018-05-06T15:37:53.851Z,36.68
2018-05-06T15:40:57.925Z,35.28
2018-05-06T15:44:01.237Z,34.35
2018-05-06T15:47:04.553Z,34.92
2018-05-06T15:50:07.853Z,34.54
2018-05-06T15:53:11.936Z,34.73
2018-05-06T15:56:15.244Z,34.62
2018-05-06T15:59:18.579Z,33.99
2018-05-06T16:02:53.062Z,33.82
2018-05-06T16:05:56.404Z,33.23
2018-05-06T16:08:59.713Z,32.72
2018-05-06T16:12:03.125Z,34.54
2018-05-06T16:15:06.340Z,35.80
2018-05-06T16:18:09.649Z,35.96
2018-05-06T16:21:12.969Z,37.45
2018-05-06T16:24:17.036Z,38.24
2018-05-06T16:27:20.349Z,38.08
2018-05-06T16:30:23.649Z,39.93
2018-05-06T16:33:26.958Z,39.92
2018-05-06T16:36:30.274Z,41.13
2018-05-06T16:39:34.336Z,41.44
2018-05-06T16:42:37.653Z,41.67
2018-05-06T16:45:41.010Z,43.63
2018-05-06T16:48:45.060Z,43.57
2018-05-06T16:51:48.366Z,43.08
2018-05-06T16:54:53.298Z,43.41
2018-05-06T16:57:56.605Z,43.59
2018-05-06T17:00:59.938Z,43.75
2018-05-06T17:04:03.237Z,43.97
2018-05-06T17:07:06.548Z,43.93
2018-05-06T17:10:09.849Z,44.04
2018-05-06T17:13:13.177Z,44.06
2018-05-06T17:16:16.486Z,44.29
2018-05-06T17:19:19.806Z,44.60
2018-05-06T17:22:23.873Z,44.56
2018-05-06T17:25:27.190Z,45.36
2018-05-06T17:28:30.485Z,43.97
2018-05-06T17:31:33.804Z,43.46
2018-05-06T17:34:37.882Z,43.98
2018-05-06T17:37:41.203Z,44.25
2018-05-06T17:40:45.304Z,44.45
2018-05-06T17:43:48.604Z,45.14
2018-05-06T17:46:51.931Z,45.45
2018-05-06T17:49:55.242Z,44.89
2018-05-06T17:52:58.562Z,45.32
2018-05-06T17:56:01.858Z,45.55
2018-05-06T17:59:05.181Z,46.45
2018-05-06T18:02:08.505Z,46.67
2018-05-06T18:05:12.572Z,47.64
2018-05-06T18:08:15.885Z,48.09
2018-05-06T18:11:19.223Z,48.63
2018-05-06T18:14:22.530Z,48.79
2018-05-06T18:17:25.871Z,49.04
2018-05-06T18:20:29.169Z,50.05
2018-05-06T18:23:32.481Z,50.85
2018-05-06T18:26:35.821Z,51.24
2018-05-06T18:29:39.121Z,52.10
2018-05-06T18:32:42.446Z,52.29
2018-05-06T18:35:45.745Z,52.78
2018-05-06T18:38:49.061Z,53.00
2018-05-06T18:41:52.366Z,53.65
2018-05-06T18:44:56.453Z,54.33
2018-05-06T18:47:59.756Z,54.58
2018-05-06T18:51:03.088Z,55.24
2018-05-06T18:54:07.160Z,55.24
2018-05-06T18:57:10.496Z,55.43
2018-05-06T19:00:14.571Z,56.22
2018-05-06T19:03:17.917Z,56.05
2018-05-06T19:06:21.222Z,56.73
2018-05-06T19:09:24.529Z,57.18
2018-05-06T19:12:27.850Z,57.58
2018-05-06T19:15:31.155Z,57.70
2018-05-06T19:18:34.479Z,57.91
2018-05-06T19:21:38.550Z,58.23
2018-05-06T19:24:41.869Z,58.58
2018-05-06T19:27:45.165Z,59.02
2018-05-06T19:30:48.501Z,59.26
2018-05-06T19:33:51.798Z,60.01
2018-05-06T19:36:55.110Z,59.91
2018-05-06T19:39:58.421Z,60.26
2018-05-06T19:43:01.737Z,60.52
2018-05-06T19:46:05.037Z,60.93
2018-05-06T19:49:08.350Z,61.03
2018-05-06T19:52:11.649Z,61.63
2018-05-06T19:55:15.012Z,61.73
2018-05-06T19:58:18.312Z,61.92
2018-05-06T20:01:21.637Z,62.19
2018-05-06T20:04:25.174Z,62.52
2018-05-06T20:07:28.561Z,62.80
2018-05-06T20:10:31.830Z,62.94
2018-05-06T20:13:35.149Z,63.25
2018-05-06T20:16:39.237Z,62.99
2018-05-06T20:19:42.562Z,62.80
2018-05-06T20:22:46.644Z,62.88
2018-05-06T20:25:49.964Z,63.15
2018-05-06T20:28:54.029Z,62.74
2018-05-06T20:31:57.357Z,62.58
2018-05-06T20:35:00.661Z,62.65
2018-05-06T20:38:03.985Z,62.62
2018-05-06T20:41:07.286Z,62.63
2018-05-06T20:44:10.610Z,62.76
2018-05-06T20:47:13.910Z,62.90
2018-05-06T20:50:17.226Z,63.23
2018-05-06T20:53:20.541Z,63.03
2018-05-06T20:56:23.850Z,63.10
2018-05-06T20:59:27.937Z,63.11
2018-05-06T21:02:31.237Z,63.13
2018-05-06T21:05:34.558Z,63.17
2018-05-06T21:08:38.635Z,63.26
2018-05-06T21:11:41.945Z,63.07
2018-05-06T21:14:45.253Z,63.13
2018-05-06T21:17:48.580Z,63.11
2018-05-06T21:20:51.883Z,63.17
2018-05-06T21:23:55.205Z,63.37
2018-05-06T21:26:58.513Z,63.47
2018-05-06T21:30:01.839Z,63.48
2018-05-06T21:33:05.992Z,63.39
2018-05-06T21:36:09.245Z,63.28
2018-05-06T21:39:12.593Z,63.02
2018-05-06T21:42:16.649Z,63.06
2018-05-06T21:45:19.956Z,63.00
2018-05-06T21:48:24.051Z,62.97
2018-05-06T21:51:27.357Z,63.25
2018-05-06T21:54:30.738Z,63.11
2018-05-06T21:57:34.006Z,63.13
2018-05-06T22:00:37.368Z,63.04
2018-05-06T22:03:41.433Z,63.04
2018-05-06T22:06:44.757Z,63.39
2018-05-06T22:09:48.070Z,63.59
2018-05-06T22:12:52.148Z,63.51
2018-05-06T22:15:55.440Z,63.63
2018-05-06T22:18:58.761Z,63.72
2018-05-06T22:22:02.075Z,63.88
2018-05-06T22:25:06.143Z,64.17
2018-05-06T22:28:09.469Z,64.42
2018-05-06T22:31:12.765Z,64.51
2018-05-06T22:34:16.116Z,64.59
2018-05-06T22:37:19.404Z,64.77
2018-05-06T22:40:22.714Z,65.00
2018-05-06T22:43:26.034Z,65.12
2018-05-06T22:46:29.332Z,65.17
2018-05-06T22:49:32.645Z,65.27
2018-05-06T22:52:35.969Z,65.21
2018-05-06T22:55:40.056Z,65.47
2018-05-06T22:58:43.361Z,65.79
2018-05-06T23:01:46.689Z,65.86
2018-05-06T23:04:49.985Z,66.06
2018-05-06T23:07:53.321Z,66.31
2018-05-06T23:10:56.629Z,66.41
2018-05-06T23:13:59.943Z,66.73
2018-05-06T23:17:03.246Z,67.00
2018-05-06T23:20:07.328Z,67.24
2018-05-06T23:23:10.638Z,67.51
2018-05-06T23:26:13.962Z,67.73
2018-05-06T23:29:18.068Z,68.01
2018-05-06T23:32:21.379Z,68.44
2018-05-06T23:35:25.450Z,68.69
2018-05-06T23:38:28.769Z,68.93
2018-05-06T23:41:32.081Z,69.18
2018-05-06T23:44:36.162Z,69.45
2018-05-06T23:47:39.473Z,69.67
2018-05-06T23:50:42.799Z,69.92
2018-05-06T23:53:46.128Z,70.23
2018-05-06T23:56:49.429Z,70.65
2018-05-06T23:59:52.765Z,70.89
